createdAt,value
2018-08-08T00:00:00.674Z,2.20
2018-08-08T00:01:00.700Z,2.40
2018-08-08T00:02:00.725Z,2.30
2018-08-08T00:03:00.751Z,2.30
2018-08-08T00:04:00.779Z,2.20
2018-08-08T00:05:00.803Z,2.70
2018-08-08T00:06:00.830Z,2.30
2018-08-08T00:07:00.857Z,2.60
2018-08-08T00:08:00.881Z,2.70
2018-08-08T00:09:00.907Z,2.90
2018-08-08T00:10:00.933Z,2.40
2018-08-08T00:11:00.960Z,2.80
2018-08-08T00:12:00.984Z,2.20
2018-08-08T00:13:01.011Z,2.50
2018-08-08T00:14:01.054Z,2.70
2018-08-08T00:15:01.062Z,2.20
2018-08-08T00:16:01.092Z,2.30
2018-08-08T00:17:01.114Z,2.50
2018-08-08T00:18:01.144Z,2.20
2018-08-08T00:19:01.167Z,2.50
2018-08-08T00:20:01.193Z,2.30
2018-08-08T00:21:01.219Z,2.50
2018-08-08T00:22:01.244Z,2.30
2018-08-08T00:23:01.270Z,2.60
2018-08-08T00:24:01.295Z,2.60
2018-08-08T00:25:01.327Z,2.20
2018-08-08T00:26:01.347Z,2.20
2018-08-08T00:27:01.374Z,2.30
2018-08-08T00:28:01.399Z,2.30
2018-08-08T00:29:01.426Z,2.00
2018-08-08T00:30:01.452Z,2.50
2018-08-08T00:31:01.478Z,2.60
2018-08-08T00:32:01.505Z,2.40
2018-08-08T00:33:01.533Z,2.50
2018-08-08T00:34:01.555Z,2.30
2018-08-08T00:35:01.583Z,2.20
2018-08-08T00:36:01.609Z,2.10
2018-08-08T00:37:01.633Z,2.10
2018-08-08T00:38:01.659Z,2.00
2018-08-08T00:39:01.689Z,2.10
2018-08-08T00:40:01.713Z,2.10
2018-08-08T00:41:01.737Z,2.30
2018-08-08T00:42:01.763Z,2.40
2018-08-08T00:43:01.790Z,2.30
2018-08-08T00:44:01.815Z,2.30
2018-08-08T00:45:01.841Z,2.40
2018-08-08T00:46:01.867Z,2.30
2018-08-08T00:47:01.892Z,2.20
2018-08-08T00:48:01.907Z,2.70
2018-08-08T00:49:01.931Z,2.10
2018-08-08T00:50:01.958Z,2.50
2018-08-08T00:51:01.983Z,2.60
2018-08-08T00:52:02.012Z,2.40
2018-08-08T00:53:02.036Z,2.40
2018-08-08T00:54:02.061Z,2.60
2018-08-08T00:55:02.088Z,2.40
2018-08-08T00:56:02.114Z,2.40
2018-08-08T00:57:02.139Z,2.40
2018-08-08T00:58:02.165Z,2.20
2018-08-08T00:59:02.190Z,2.40
2018-08-08T01:00:02.219Z,2.50
2018-08-08T01:01:02.245Z,2.20
2018-08-08T01:02:02.269Z,2.50
2018-08-08T01:03:02.295Z,2.60
2018-08-08T01:04:02.320Z,2.20
2018-08-08T01:05:02.347Z,2.40
2018-08-08T01:06:02.376Z,2.60
2018-08-08T01:07:02.399Z,2.60
2018-08-08T01:08:02.424Z,2.40
2018-08-08T01:09:02.466Z,2.70
2018-08-08T01:10:02.464Z,2.30
2018-08-08T01:11:02.491Z,2.30
2018-08-08T01:12:02.516Z,2.30
2018-08-08T01:13:02.541Z,2.30
2018-08-08T01:14:02.568Z,2.30
2018-08-08T01:15:02.594Z,2.60
2018-08-08T01:16:02.621Z,2.60
2018-08-08T01:17:02.646Z,2.80
2018-08-08T01:18:02.672Z,2.50
2018-08-08T01:19:02.698Z,2.50
2018-08-08T01:20:02.731Z,2.50
2018-08-08T01:21:02.749Z,2.60
2018-08-08T01:22:02.777Z,2.40
2018-08-08T01:23:02.801Z,2.60
2018-08-08T01:24:02.827Z,2.50
2018-08-08T01:25:02.853Z,2.50
2018-08-08T01:26:02.879Z,2.30
2018-08-08T01:27:02.893Z,2.50
2018-08-08T01:28:02.930Z,2.60
2018-08-08T01:29:02.944Z,2.30
2018-08-08T01:30:02.969Z,2.60
2018-08-08T01:31:03.000Z,2.50
2018-08-08T01:32:03.022Z,2.30
2018-08-08T01:33:03.049Z,2.40
2018-08-08T01:34:03.091Z,2.40
2018-08-08T01:35:03.100Z,2.30
2018-08-08T01:36:03.126Z,2.30
2018-08-08T01:37:03.152Z,2.60
2018-08-08T01:38:03.178Z,2.30
2018-08-08T01:39:03.205Z,2.50
2018-08-08T01:40:03.233Z,2.50
2018-08-08T01:41:03.255Z,2.50
2018-08-08T01:42:03.281Z,2.60
2018-08-08T01:43:03.320Z,2.50
2018-08-08T01:44:03.333Z,2.40
2018-08-08T01:45:03.347Z,2.60
2018-08-08T01:46:03.374Z,2.70
2018-08-08T01:47:03.399Z,2.30
2018-08-08T01:48:03.425Z,2.40
2018-08-08T01:49:03.453Z,2.50
2018-08-08T01:50:03.477Z,2.50
2018-08-08T01:51:03.504Z,2.50
2018-08-08T01:52:03.531Z,2.60
2018-08-08T01:53:03.555Z,2.50
2018-08-08T01:54:03.581Z,2.30
2018-08-08T01:55:03.607Z,2.60
2018-08-08T01:56:03.633Z,2.90
2018-08-08T01:57:03.659Z,2.50
2018-08-08T01:58:03.674Z,2.80
2018-08-08T01:59:03.698Z,2.60
2018-08-08T02:00:03.723Z,2.50
2018-08-08T02:01:03.750Z,2.20
2018-08-08T02:02:03.777Z,2.70
2018-08-08T02:03:03.803Z,2.50
2018-08-08T02:04:03.888Z,2.40
2018-08-08T02:05:03.853Z,2.50
2018-08-08T02:06:03.880Z,2.60
2018-08-08T02:07:03.905Z,2.40
2018-08-08T02:08:03.932Z,2.50
2018-08-08T02:09:03.957Z,2.80
2018-08-08T02:10:03.995Z,2.60
2018-08-08T02:11:04.009Z,2.90
2018-08-08T02:12:04.023Z,2.20
2018-08-08T02:13:04.049Z,2.40
2018-08-08T02:14:04.074Z,2.90
2018-08-08T02:15:04.101Z,2.50
2018-08-08T02:16:04.130Z,2.70
2018-08-08T02:17:04.152Z,2.70
2018-08-08T02:18:04.181Z,2.50
2018-08-08T02:19:04.204Z,2.50
2018-08-08T02:20:04.231Z,2.40
2018-08-08T02:21:04.257Z,2.60
2018-08-08T02:22:04.282Z,2.60
2018-08-08T02:23:04.308Z,2.60
2018-08-08T02:24:04.335Z,2.70
2018-08-08T02:25:04.351Z,2.70
2018-08-08T02:26:04.373Z,2.60
2018-08-08T02:27:04.400Z,2.70
2018-08-08T02:28:04.425Z,2.50
2018-08-08T02:29:04.454Z,2.50
2018-08-08T02:30:04.478Z,2.60
2018-08-08T02:31:04.504Z,2.40
2018-08-08T02:32:04.531Z,2.80
2018-08-08T02:33:04.555Z,2.80
2018-08-08T02:34:04.587Z,2.80
2018-08-08T02:35:04.607Z,2.50
2018-08-08T02:36:04.633Z,2.70
2018-08-08T02:37:04.700Z,2.60
2018-08-08T02:38:04.673Z,2.50
2018-08-08T02:39:04.699Z,2.90
2018-08-08T02:40:04.726Z,2.60
2018-08-08T02:41:04.755Z,2.70
2018-08-08T02:42:04.777Z,2.60
2018-08-08T02:43:04.803Z,2.70
2018-08-08T02:44:04.829Z,2.90
2018-08-08T02:45:04.861Z,2.90
2018-08-08T02:46:04.882Z,2.80
2018-08-08T02:47:04.907Z,2.80
2018-08-08T02:48:04.933Z,2.60
2018-08-08T02:49:04.947Z,2.50
2018-08-08T02:50:04.973Z,2.40
2018-08-08T02:51:04.999Z,2.60
2018-08-08T02:52:05.023Z,2.80
2018-08-08T02:53:05.062Z,2.30
2018-08-08T02:54:05.076Z,2.40
2018-08-08T02:55:05.101Z,2.60
2018-08-08T02:56:05.127Z,2.60
2018-08-08T02:57:05.153Z,2.70
2018-08-08T02:58:05.179Z,2.90
2018-08-08T02:59:05.219Z,2.80
2018-08-08T03:00:05.220Z,2.70
2018-08-08T03:01:05.247Z,2.70
2018-08-08T03:02:05.521Z,2.50
2018-08-08T03:03:05.298Z,2.80
2018-08-08T03:04:05.323Z,2.80
2018-08-08T03:05:05.349Z,3.20
2018-08-08T03:06:05.374Z,4.00
2018-08-08T03:07:05.401Z,3.80
2018-08-08T03:08:05.428Z,3.30
2018-08-08T03:09:05.441Z,2.80
2018-08-08T03:10:05.467Z,2.60
2018-08-08T03:11:05.491Z,2.60
2018-08-08T03:12:05.517Z,2.80
2018-08-08T03:13:05.544Z,3.10
2018-08-08T03:14:05.572Z,3.00
2018-08-08T03:15:05.608Z,2.70
2018-08-08T03:16:05.620Z,2.60
2018-08-08T03:17:05.647Z,2.60
2018-08-08T03:18:05.676Z,2.50
2018-08-08T03:19:05.687Z,2.70
2018-08-08T03:20:05.713Z,2.80
2018-08-08T03:21:05.739Z,2.60
2018-08-08T03:22:05.767Z,2.50
2018-08-08T03:23:05.791Z,2.70
2018-08-08T03:24:05.818Z,2.60
2018-08-08T03:25:05.842Z,2.60
2018-08-08T03:26:05.874Z,2.90
2018-08-08T03:27:05.894Z,2.60
2018-08-08T03:28:05.907Z,2.70
2018-08-08T03:29:05.943Z,2.70
2018-08-08T03:30:05.960Z,3.00
2018-08-08T03:31:05.986Z,3.30
2018-08-08T03:32:06.012Z,3.30
2018-08-08T03:33:06.037Z,2.90
2018-08-08T03:34:06.063Z,2.70
2018-08-08T03:35:06.088Z,3.00
2018-08-08T03:36:06.103Z,2.90
2018-08-08T03:37:06.130Z,2.70
2018-08-08T03:38:06.154Z,2.80
2018-08-08T03:39:06.180Z,2.70
2018-08-08T03:40:06.207Z,2.60
2018-08-08T03:41:06.235Z,2.60
2018-08-08T03:42:06.259Z,3.00
2018-08-08T03:43:06.284Z,2.70
2018-08-08T03:44:06.300Z,2.90
2018-08-08T03:45:06.323Z,2.40
2018-08-08T03:46:06.354Z,3.00
2018-08-08T03:47:06.375Z,2.80
2018-08-08T03:48:06.400Z,3.10
2018-08-08T03:49:06.427Z,3.40
2018-08-08T03:50:06.453Z,3.20
2018-08-08T03:51:06.479Z,2.80
2018-08-08T03:52:06.507Z,3.10
2018-08-08T03:53:06.554Z,2.90
2018-08-08T03:54:06.544Z,2.70
2018-08-08T03:55:06.593Z,2.80
2018-08-08T03:56:06.602Z,2.80
2018-08-08T03:57:06.623Z,2.70
2018-08-08T03:58:06.648Z,2.90
2018-08-08T03:59:06.675Z,3.20
2018-08-08T04:00:06.721Z,3.10
2018-08-08T04:01:06.714Z,3.10
2018-08-08T04:02:06.739Z,3.10
2018-08-08T04:03:06.765Z,2.80
2018-08-08T04:04:06.804Z,3.30
2018-08-08T04:05:06.818Z,3.20
2018-08-08T04:06:06.844Z,2.90
2018-08-08T04:07:06.869Z,3.50
2018-08-08T04:08:06.897Z,2.70
2018-08-08T04:09:06.948Z,2.90
2018-08-08T04:10:06.935Z,2.90
2018-08-08T04:11:06.960Z,2.90
2018-08-08T04:12:06.989Z,3.20
2018-08-08T04:13:07.012Z,2.70
2018-08-08T04:14:07.038Z,3.10
2018-08-08T04:15:07.064Z,3.30
2018-08-08T04:16:07.091Z,2.60
2018-08-08T04:17:07.129Z,2.80
2018-08-08T04:18:07.130Z,2.80
2018-08-08T04:19:07.155Z,2.90
2018-08-08T04:20:07.194Z,3.00
2018-08-08T04:21:07.206Z,2.80
2018-08-08T04:22:07.232Z,3.10
2018-08-08T04:23:07.259Z,3.10
2018-08-08T04:24:07.286Z,2.70
2018-08-08T04:25:07.310Z,3.00
2018-08-08T04:26:07.325Z,3.00
2018-08-08T04:27:07.351Z,2.80
2018-08-08T04:28:07.376Z,3.00
2018-08-08T04:29:07.402Z,2.90
2018-08-08T04:30:07.429Z,3.20
2018-08-08T04:31:07.481Z,3.10
2018-08-08T04:32:07.481Z,2.70
2018-08-08T04:33:07.506Z,3.20
2018-08-08T04:34:07.520Z,3.00
2018-08-08T04:35:07.546Z,2.80
2018-08-08T04:36:07.572Z,2.90
2018-08-08T04:37:07.601Z,3.20
2018-08-08T04:38:07.623Z,3.00
2018-08-08T04:39:07.649Z,2.80
2018-08-08T04:40:07.675Z,3.00
2018-08-08T04:41:07.701Z,2.90
2018-08-08T04:42:07.726Z,3.30
2018-08-08T04:43:07.741Z,3.30
2018-08-08T04:44:07.769Z,3.30
2018-08-08T04:45:07.794Z,3.30
2018-08-08T04:46:07.819Z,3.10
2018-08-08T04:47:07.845Z,3.30
2018-08-08T04:48:07.871Z,3.10
2018-08-08T04:49:07.897Z,3.10
2018-08-08T04:50:07.923Z,3.60
2018-08-08T04:51:07.949Z,2.90
2018-08-08T04:52:07.963Z,3.40
2018-08-08T04:53:07.987Z,3.10
2018-08-08T04:54:08.026Z,2.90
2018-08-08T04:55:08.040Z,3.10
2018-08-08T04:56:08.065Z,3.20
2018-08-08T04:57:08.091Z,2.80
2018-08-08T04:58:08.117Z,3.10
2018-08-08T04:59:08.146Z,3.30
2018-08-08T05:00:08.227Z,3.40
2018-08-08T05:01:08.183Z,3.50
2018-08-08T05:02:08.220Z,3.10
2018-08-08T05:03:08.236Z,3.50
2018-08-08T05:04:08.261Z,3.50
2018-08-08T05:05:08.286Z,3.50
2018-08-08T05:06:08.314Z,3.40
2018-08-08T05:07:08.339Z,2.80
2018-08-08T05:08:08.365Z,3.40
2018-08-08T05:09:08.392Z,3.40
2018-08-08T05:10:08.419Z,3.80
2018-08-08T05:11:08.431Z,3.20
2018-08-08T05:12:08.455Z,2.90
2018-08-08T05:13:08.481Z,3.00
2018-08-08T05:14:08.508Z,3.60
2018-08-08T05:15:08.533Z,3.50
2018-08-08T05:16:08.559Z,3.20
2018-08-08T05:17:08.586Z,3.40
2018-08-08T05:18:08.613Z,3.40
2018-08-08T05:19:08.640Z,3.20
2018-08-08T05:20:08.747Z,2.90
2018-08-08T05:21:08.688Z,3.50
2018-08-08T05:22:08.703Z,3.10
2018-08-08T05:23:08.733Z,3.70
2018-08-08T05:24:08.755Z,3.20
2018-08-08T05:25:08.786Z,3.10
2018-08-08T05:26:08.807Z,3.40
2018-08-08T05:27:08.833Z,3.40
2018-08-08T05:28:08.862Z,3.60
2018-08-08T05:29:08.885Z,3.20
2018-08-08T05:30:08.910Z,3.20
2018-08-08T05:31:08.937Z,3.30
2018-08-08T05:32:08.963Z,3.40
2018-08-08T05:33:08.988Z,3.30
2018-08-08T05:34:09.002Z,3.10
2018-08-08T05:35:09.027Z,3.50
2018-08-08T05:36:09.067Z,3.70
2018-08-08T05:37:09.092Z,3.40
2018-08-08T05:38:09.105Z,3.60
2018-08-08T05:39:09.131Z,3.30
2018-08-08T05:40:09.157Z,3.60
2018-08-08T05:41:09.183Z,3.40
2018-08-08T05:42:09.209Z,3.60
2018-08-08T05:43:09.237Z,3.30
2018-08-08T05:44:09.261Z,3.50
2018-08-08T05:45:09.300Z,3.50
2018-08-08T05:46:09.329Z,3.30
2018-08-08T05:47:09.339Z,3.70
2018-08-08T05:48:09.365Z,3.50
2018-08-08T05:49:09.435Z,3.80
2018-08-08T05:50:09.405Z,3.40
2018-08-08T05:51:09.433Z,3.50
2018-08-08T05:52:09.461Z,3.70
2018-08-08T05:53:09.483Z,3.60
2018-08-08T05:54:09.508Z,3.70
2018-08-08T05:55:09.534Z,4.40
2018-08-08T05:56:09.561Z,3.80
2018-08-08T05:57:09.587Z,3.40
2018-08-08T05:58:09.613Z,4.10
2018-08-08T05:59:09.639Z,3.90
2018-08-08T06:00:09.666Z,3.80
2018-08-08T06:01:09.690Z,3.90
2018-08-08T06:02:09.729Z,3.60
2018-08-08T06:03:09.743Z,3.60
2018-08-08T06:04:09.768Z,4.50
2018-08-08T06:05:09.794Z,3.80
2018-08-08T06:06:09.820Z,3.80
2018-08-08T06:07:09.846Z,3.80
2018-08-08T06:08:09.909Z,4.00
2018-08-08T06:09:09.899Z,4.30
2018-08-08T06:10:09.924Z,3.80
2018-08-08T06:11:09.950Z,4.40
2018-08-08T06:12:09.976Z,4.70
2018-08-08T06:13:10.004Z,4.20
2018-08-08T06:14:10.029Z,3.90
2018-08-08T06:15:10.054Z,3.80
2018-08-08T06:16:10.080Z,3.90
2018-08-08T06:17:10.108Z,4.00
2018-08-08T06:18:10.131Z,3.80
2018-08-08T06:19:10.158Z,3.90
2018-08-08T06:20:10.184Z,3.80
2018-08-08T06:21:10.209Z,3.80
2018-08-08T06:22:10.236Z,3.70
2018-08-08T06:23:10.261Z,3.80
2018-08-08T06:24:10.288Z,3.60
2018-08-08T06:25:10.314Z,3.40
2018-08-08T06:26:10.339Z,3.80
2018-08-08T06:27:10.377Z,3.50
2018-08-08T06:28:10.404Z,3.40
2018-08-08T06:29:10.430Z,3.40
2018-08-08T06:30:10.455Z,3.40
2018-08-08T06:31:10.481Z,3.60
2018-08-08T06:32:10.507Z,3.70
2018-08-08T06:33:10.532Z,3.60
2018-08-08T06:34:10.560Z,3.70
2018-08-08T06:35:10.598Z,3.50
2018-08-08T06:36:10.623Z,3.90
2018-08-08T06:37:10.649Z,3.60
2018-08-08T06:38:10.676Z,3.50
2018-08-08T06:39:10.713Z,3.30
2018-08-08T06:40:10.746Z,3.90
2018-08-08T06:41:10.766Z,3.70
2018-08-08T06:42:10.792Z,3.40
2018-08-08T06:43:10.830Z,3.50
2018-08-08T06:44:10.937Z,3.50
2018-08-08T06:45:10.882Z,3.50
2018-08-08T06:46:10.924Z,3.50
2018-08-08T06:47:10.945Z,3.40
2018-08-08T06:48:10.971Z,3.20
2018-08-08T06:49:11.011Z,3.30
2018-08-08T06:50:11.047Z,3.90
2018-08-08T06:51:11.064Z,3.40
2018-08-08T06:52:11.103Z,3.00
2018-08-08T06:53:11.132Z,3.50
2018-08-08T06:54:11.165Z,3.30
2018-08-08T06:55:11.191Z,3.40
2018-08-08T06:56:11.228Z,3.10
2018-08-08T06:57:11.268Z,3.40
2018-08-08T06:58:11.282Z,3.40
2018-08-08T06:59:11.320Z,3.50
2018-08-08T07:00:11.347Z,3.50
2018-08-08T07:01:11.384Z,3.80
2018-08-08T07:02:11.410Z,3.40
2018-08-08T07:03:11.454Z,3.80
2018-08-08T07:04:11.475Z,3.20
2018-08-08T07:05:11.514Z,3.50
2018-08-08T07:06:11.542Z,3.90
2018-08-08T07:07:11.578Z,3.90
2018-08-08T07:08:11.604Z,3.80
2018-08-08T07:09:11.642Z,3.60
2018-08-08T07:10:11.681Z,3.60
2018-08-08T07:11:11.709Z,3.60
2018-08-08T07:12:11.756Z,3.60
2018-08-08T07:13:11.770Z,3.30
2018-08-08T07:14:11.815Z,3.40
2018-08-08T07:15:11.850Z,3.90
2018-08-08T07:16:11.873Z,3.70
2018-08-08T07:17:11.913Z,3.70
2018-08-08T07:18:11.945Z,3.50
2018-08-08T07:19:11.976Z,3.90
2018-08-08T07:20:12.017Z,3.70
2018-08-08T07:21:12.041Z,4.30
2018-08-08T07:22:12.078Z,3.40
2018-08-08T07:23:12.118Z,3.40
2018-08-08T07:24:12.144Z,3.90
2018-08-08T07:25:12.237Z,3.90
2018-08-08T07:26:12.221Z,3.80
2018-08-08T07:27:12.257Z,4.00
2018-08-08T07:28:12.285Z,3.50
2018-08-08T07:29:12.324Z,3.80
2018-08-08T07:30:12.365Z,3.90
2018-08-08T07:31:12.401Z,4.10
2018-08-08T07:32:12.461Z,4.00
2018-08-08T07:33:12.465Z,3.60
2018-08-08T07:34:12.504Z,3.60
2018-08-08T07:35:12.529Z,4.10
2018-08-08T07:36:12.567Z,4.10
2018-08-08T07:37:12.606Z,3.90
2018-08-08T07:38:12.644Z,4.10
2018-08-08T07:39:12.684Z,4.00
2018-08-08T07:40:12.708Z,4.10
2018-08-08T07:41:12.754Z,4.30
2018-08-08T07:42:12.785Z,4.50
2018-08-08T07:43:12.825Z,4.30
2018-08-08T07:44:12.863Z,4.40
2018-08-08T07:45:12.900Z,4.50
2018-08-08T07:46:12.975Z,4.20
2018-08-08T07:47:12.965Z,4.50
2018-08-08T07:48:13.003Z,3.80
2018-08-08T07:49:13.042Z,4.40
2018-08-08T07:50:13.081Z,4.00
2018-08-08T07:51:13.120Z,4.50
2018-08-08T07:52:13.157Z,4.70
2018-08-08T07:53:13.196Z,4.10
2018-08-08T07:54:13.223Z,4.50
2018-08-08T07:55:13.264Z,4.50
2018-08-08T07:56:13.300Z,4.50
2018-08-08T07:57:13.337Z,4.70
2018-08-08T07:58:13.444Z,4.60
2018-08-08T07:59:13.414Z,4.50
2018-08-08T08:00:13.455Z,4.70
2018-08-08T08:01:13.491Z,4.60
2018-08-08T08:02:13.530Z,4.50
2018-08-08T08:03:13.573Z,4.70
2018-08-08T08:04:13.607Z,4.90
2018-08-08T08:05:13.645Z,4.80
2018-08-08T08:06:13.683Z,4.40
2018-08-08T08:07:13.722Z,4.60
2018-08-08T08:08:13.761Z,4.50
2018-08-08T08:09:13.812Z,4.40
2018-08-08T08:10:13.843Z,4.90
2018-08-08T08:11:13.876Z,4.10
2018-08-08T08:12:13.915Z,4.60
2018-08-08T08:13:13.952Z,4.20
2018-08-08T08:14:13.992Z,5.00
2018-08-08T08:15:14.030Z,4.90
2018-08-08T08:16:14.068Z,4.40
2018-08-08T08:17:14.106Z,4.10
2018-08-08T08:18:14.146Z,4.30
2018-08-08T08:19:14.183Z,4.70
2018-08-08T08:20:14.222Z,4.70
2018-08-08T08:21:14.262Z,4.80
2018-08-08T08:22:14.299Z,4.90
2018-08-08T08:23:14.393Z,5.30
2018-08-08T08:24:14.376Z,4.60
2018-08-08T08:25:14.413Z,4.80
2018-08-08T08:26:14.455Z,4.70
2018-08-08T08:27:14.490Z,5.40
2018-08-08T08:28:14.530Z,4.80
2018-08-08T08:29:14.568Z,5.00
2018-08-08T08:30:14.597Z,5.00
2018-08-08T08:31:14.634Z,5.20
2018-08-08T08:32:14.670Z,4.90
2018-08-08T08:33:14.709Z,4.90
2018-08-08T08:34:14.747Z,5.80
2018-08-08T08:35:14.786Z,5.20
2018-08-08T08:36:14.820Z,5.20
2018-08-08T08:37:14.850Z,5.40
2018-08-08T08:38:14.889Z,4.80
2018-08-08T08:39:14.926Z,4.80
2018-08-08T08:40:14.953Z,5.30
2018-08-08T08:41:14.992Z,5.10
2018-08-08T08:42:15.031Z,5.10
2018-08-08T08:43:15.056Z,4.90
2018-08-08T08:44:15.095Z,5.40
2018-08-08T08:45:15.145Z,5.20
2018-08-08T08:46:15.158Z,5.40
2018-08-08T08:47:15.199Z,5.10
2018-08-08T08:48:15.235Z,5.40
2018-08-08T08:49:15.261Z,5.20
2018-08-08T08:50:15.346Z,5.20
2018-08-08T08:51:15.339Z,6.00
2018-08-08T08:52:15.385Z,5.30
2018-08-08T08:53:15.403Z,6.00
2018-08-08T08:54:15.430Z,5.60
2018-08-08T08:55:15.468Z,5.10
2018-08-08T08:56:15.506Z,5.60
2018-08-08T08:57:15.532Z,5.30
2018-08-08T08:58:15.571Z,5.30
2018-08-08T08:59:15.596Z,5.10
2018-08-08T09:00:15.635Z,5.50
2018-08-08T09:01:15.672Z,5.30
2018-08-08T09:02:15.698Z,5.80
2018-08-08T09:03:15.737Z,5.20
2018-08-08T09:04:15.765Z,5.90
2018-08-08T09:05:15.802Z,5.70
2018-08-08T09:06:15.828Z,5.40
2018-08-08T09:07:15.910Z,5.70
2018-08-08T09:08:15.894Z,5.70
2018-08-08T09:09:15.930Z,5.40
2018-08-08T09:10:15.970Z,4.90
2018-08-08T09:11:15.995Z,5.30
2018-08-08T09:12:16.045Z,5.50
2018-08-08T09:13:16.060Z,5.20
2018-08-08T09:14:16.099Z,4.50
2018-08-08T09:15:16.124Z,5.00
2018-08-08T09:16:16.163Z,5.10
2018-08-08T09:17:16.188Z,5.20
2018-08-08T09:18:16.228Z,5.20
2018-08-08T09:19:16.265Z,5.10
2018-08-08T09:20:16.307Z,5.20
2018-08-08T09:21:16.329Z,4.60
2018-08-08T09:22:16.355Z,4.70
2018-08-08T09:23:16.397Z,5.00
2018-08-08T09:24:16.459Z,5.00
2018-08-08T09:25:16.458Z,5.10
2018-08-08T09:26:16.491Z,4.70
2018-08-08T09:27:16.523Z,4.90
2018-08-08T09:28:16.561Z,5.00
2018-08-08T09:29:16.588Z,4.70
2018-08-08T09:30:16.638Z,4.90
2018-08-08T09:31:16.652Z,4.70
2018-08-08T09:32:16.691Z,5.20
2018-08-08T09:33:16.730Z,5.10
2018-08-08T09:34:16.754Z,4.60
2018-08-08T09:35:16.793Z,4.80
2018-08-08T09:36:16.845Z,4.70
2018-08-08T09:37:16.856Z,4.90
2018-08-08T09:38:16.897Z,4.80
2018-08-08T09:39:16.934Z,4.80
2018-08-08T09:40:16.996Z,4.70
2018-08-08T09:41:16.999Z,4.40
2018-08-08T09:42:17.037Z,4.30
2018-08-08T09:43:17.062Z,4.90
2018-08-08T09:44:17.163Z,4.20
2018-08-08T09:45:17.139Z,4.10
2018-08-08T09:46:17.166Z,4.70
2018-08-08T09:47:17.205Z,4.40
2018-08-08T09:48:17.241Z,4.50
2018-08-08T09:49:17.269Z,4.20
2018-08-08T09:50:17.350Z,4.20
2018-08-08T09:51:17.344Z,4.40
2018-08-08T09:52:17.373Z,4.60
2018-08-08T09:53:17.411Z,4.80
2018-08-08T09:54:17.437Z,4.10
2018-08-08T09:55:17.487Z,4.40
2018-08-08T09:56:17.565Z,4.40
2018-08-08T09:57:17.540Z,4.70
2018-08-08T09:58:17.577Z,4.30
2018-08-08T09:59:17.616Z,4.50
2018-08-08T10:00:17.669Z,4.90
2018-08-08T10:01:17.679Z,4.90
2018-08-08T10:02:17.719Z,4.50
2018-08-08T10:03:17.758Z,4.80
2018-08-08T10:04:17.795Z,4.60
2018-08-08T10:05:17.821Z,4.50
2018-08-08T10:06:17.859Z,4.30
2018-08-08T10:07:17.899Z,4.40
2018-08-08T10:08:17.936Z,4.30
2018-08-08T10:09:17.975Z,4.40
2018-08-08T10:10:18.013Z,4.20
2018-08-08T10:11:18.057Z,4.20
2018-08-08T10:12:18.134Z,3.60
2018-08-08T10:13:18.129Z,3.80
2018-08-08T10:14:18.165Z,3.60
2018-08-08T10:15:18.193Z,3.80
2018-08-08T10:16:18.232Z,4.00
2018-08-08T10:17:18.269Z,3.50
2018-08-08T10:18:18.308Z,4.10
2018-08-08T10:19:18.346Z,3.50
2018-08-08T10:20:18.387Z,3.60
2018-08-08T10:21:18.424Z,3.80
2018-08-08T10:22:18.464Z,3.60
2018-08-08T10:23:18.513Z,3.50
2018-08-08T10:24:18.564Z,3.40
2018-08-08T10:25:18.593Z,4.10
2018-08-08T10:26:18.627Z,4.20
2018-08-08T10:27:18.667Z,3.50
2018-08-08T10:28:18.705Z,3.80
2018-08-08T10:29:18.746Z,3.90
2018-08-08T10:30:18.795Z,3.80
2018-08-08T10:31:18.834Z,4.10
2018-08-08T10:32:18.871Z,3.90
2018-08-08T10:33:18.913Z,3.80
2018-08-08T10:34:18.960Z,3.70
2018-08-08T10:35:19.000Z,3.50
2018-08-08T10:36:19.037Z,3.40
2018-08-08T10:37:19.089Z,3.30
2018-08-08T10:38:19.127Z,3.30
2018-08-08T10:39:19.165Z,3.20
2018-08-08T10:40:19.216Z,3.50
2018-08-08T10:41:19.254Z,3.30
2018-08-08T10:42:19.295Z,3.50
2018-08-08T10:43:19.344Z,3.10
2018-08-08T10:44:19.383Z,3.00
2018-08-08T10:45:19.434Z,3.10
2018-08-08T10:46:19.484Z,2.90
2018-08-08T10:47:19.511Z,3.40
2018-08-08T10:48:19.562Z,3.20
2018-08-08T10:49:19.599Z,3.10
2018-08-08T10:50:19.649Z,3.20
2018-08-08T10:51:19.689Z,3.30
2018-08-08T10:52:19.726Z,3.50
2018-08-08T10:53:19.777Z,3.30
2018-08-08T10:54:19.817Z,3.40
2018-08-08T10:55:19.856Z,3.40
2018-08-08T10:56:19.941Z,3.10
2018-08-08T10:57:19.945Z,3.20
2018-08-08T10:58:19.983Z,3.30
2018-08-08T10:59:20.034Z,3.40
2018-08-08T11:00:20.076Z,3.70
2018-08-08T11:01:20.111Z,3.50
2018-08-08T11:02:20.149Z,3.70
2018-08-08T11:03:20.201Z,3.50
2018-08-08T11:04:20.237Z,3.70
2018-08-08T11:05:20.277Z,3.60
2018-08-08T11:06:20.315Z,3.90
2018-08-08T11:07:20.365Z,3.70
2018-08-08T11:08:20.404Z,3.70
2018-08-08T11:09:20.443Z,3.80
2018-08-08T11:10:20.481Z,3.70
2018-08-08T11:11:20.535Z,4.00
2018-08-08T11:12:20.571Z,3.30
2018-08-08T11:13:20.611Z,3.80
2018-08-08T11:14:20.660Z,3.70
2018-08-08T11:15:20.699Z,3.50
2018-08-08T11:16:20.737Z,3.60
2018-08-08T11:17:20.789Z,3.60
2018-08-08T11:18:20.825Z,3.50
2018-08-08T11:19:20.877Z,3.50
2018-08-08T11:20:20.915Z,3.40
2018-08-08T11:21:20.954Z,3.60
2018-08-08T11:22:21.017Z,3.90
2018-08-08T11:23:21.047Z,3.40
2018-08-08T11:24:21.096Z,3.60
2018-08-08T11:25:21.133Z,3.60
2018-08-08T11:26:21.183Z,3.50
2018-08-08T11:27:21.223Z,3.60
2018-08-08T11:28:21.275Z,3.60
2018-08-08T11:29:21.311Z,3.40
2018-08-08T11:30:21.388Z,3.70
2018-08-08T11:31:21.413Z,3.70
2018-08-08T11:32:21.452Z,3.40
2018-08-08T11:33:21.491Z,3.10
2018-08-08T11:34:21.541Z,3.40
2018-08-08T11:35:21.593Z,3.50
2018-08-08T11:36:21.630Z,3.30
2018-08-08T11:37:21.685Z,3.50
2018-08-08T11:38:21.721Z,3.10
2018-08-08T11:39:21.770Z,3.40
2018-08-08T11:40:21.821Z,3.20
2018-08-08T11:41:21.865Z,3.60
2018-08-08T11:42:21.914Z,3.20
2018-08-08T11:43:21.951Z,3.30
2018-08-08T11:44:22.000Z,3.50
2018-08-08T11:45:22.051Z,3.30
2018-08-08T11:46:22.102Z,3.40
2018-08-08T11:47:22.140Z,3.60
2018-08-08T11:48:22.191Z,3.60
2018-08-08T11:49:22.230Z,3.50
2018-08-08T11:50:22.282Z,3.10
2018-08-08T11:51:22.324Z,3.30
2018-08-08T11:52:22.370Z,3.30
2018-08-08T11:53:22.422Z,3.40
2018-08-08T11:54:22.472Z,3.50
2018-08-08T11:55:22.510Z,3.40
2018-08-08T11:56:22.560Z,3.30
2018-08-08T11:57:22.600Z,3.20
2018-08-08T11:58:22.651Z,3.10
2018-08-08T11:59:22.702Z,3.20
2018-08-08T12:00:22.740Z,3.30
2018-08-08T12:01:22.791Z,3.50
2018-08-08T12:02:22.831Z,3.20
2018-08-08T12:03:22.881Z,3.00
2018-08-08T12:04:22.932Z,3.50
2018-08-08T12:05:22.970Z,3.20
2018-08-08T12:06:23.021Z,2.90
2018-08-08T12:07:23.088Z,3.20
2018-08-08T12:08:23.112Z,3.40
2018-08-08T12:09:23.167Z,3.50
2018-08-08T12:10:23.212Z,3.10
2018-08-08T12:11:23.249Z,2.90
2018-08-08T12:12:23.301Z,3.10
2018-08-08T12:13:23.351Z,2.90
2018-08-08T12:14:23.390Z,3.10
2018-08-08T12:15:23.444Z,3.30
2018-08-08T12:16:23.478Z,3.30
2018-08-08T12:17:23.529Z,3.00
2018-08-08T12:18:23.580Z,3.10
2018-08-08T12:19:23.624Z,2.80
2018-08-08T12:20:23.670Z,3.20
2018-08-08T12:21:23.708Z,3.30
2018-08-08T12:22:23.774Z,3.10
2018-08-08T12:23:23.801Z,3.30
2018-08-08T12:24:23.849Z,3.40
2018-08-08T12:25:23.887Z,3.10
2018-08-08T12:26:23.937Z,2.90
2018-08-08T12:27:23.990Z,3.30
2018-08-08T12:28:24.040Z,3.10
2018-08-08T12:29:24.079Z,3.30
2018-08-08T12:30:24.117Z,3.00
2018-08-08T12:31:24.187Z,3.30
2018-08-08T12:32:24.219Z,3.40
2018-08-08T12:33:24.258Z,3.00
2018-08-08T12:34:24.319Z,2.90
2018-08-08T12:35:24.383Z,2.60
2018-08-08T12:36:24.398Z,2.80
2018-08-08T12:37:24.462Z,2.70
2018-08-08T12:38:24.489Z,2.80
2018-08-08T12:39:24.607Z,2.80
2018-08-08T12:40:24.589Z,3.00
2018-08-08T12:41:24.627Z,2.80
2018-08-08T12:42:24.678Z,3.10
2018-08-08T12:43:24.717Z,2.90
2018-08-08T12:44:24.768Z,2.60
2018-08-08T12:45:24.818Z,2.80
2018-08-08T12:46:24.856Z,2.70
2018-08-08T12:47:24.907Z,2.80
2018-08-08T12:48:24.946Z,3.20
2018-08-08T12:49:24.998Z,2.90
2018-08-08T12:50:25.049Z,3.00
2018-08-08T12:51:25.087Z,3.00
2018-08-08T12:52:25.150Z,2.80
2018-08-08T12:53:25.196Z,3.00
2018-08-08T12:54:25.228Z,2.80
2018-08-08T12:55:25.278Z,2.90
2018-08-08T12:56:25.315Z,3.40
2018-08-08T12:57:25.411Z,2.90
2018-08-08T12:58:25.418Z,2.80
2018-08-08T12:59:25.456Z,3.30
2018-08-08T13:00:25.509Z,3.10
2018-08-08T13:01:25.545Z,2.90
2018-08-08T13:02:25.596Z,2.90
2018-08-08T13:03:25.647Z,2.80
2018-08-08T13:04:25.686Z,3.10
2018-08-08T13:05:25.737Z,2.70
2018-08-08T13:06:25.776Z,2.80
2018-08-08T13:07:25.839Z,3.00
2018-08-08T13:08:25.884Z,3.20
2018-08-08T13:09:25.916Z,2.80
2018-08-08T13:10:25.967Z,3.20
2018-08-08T13:11:26.022Z,3.10
2018-08-08T13:12:26.056Z,3.10
2018-08-08T13:13:26.108Z,3.30
2018-08-08T13:14:26.147Z,3.50
2018-08-08T13:15:26.198Z,3.40
2018-08-08T13:16:26.238Z,3.30
2018-08-08T13:17:26.286Z,3.00
2018-08-08T13:18:26.338Z,2.70